aviador You're here:

LDDU Decoded Metar

DUBROVNIK in CROATIA
Report Time2017-11-24 09:00:00
UTC Time2017-11-24 09:05:22
Flight Rules vfr VFR
Wind290° at 04 kt
W.Decomp.*RWY 30: 3.9 kt HW 0.9 kt LCW
W.Rank290° ranks 6
Current wind is below 290° avg. (7.8)
Visibility9999 m
Phenomena:N/A
Clouds:Few 068 Hf
Expected CloudBase > 3,600 ft AGL from Temp-Dew spread
CeilingNone
Temp15°C (ISA +1)
Dew Point06°C (55% RH)
AAT12.6°C
QNH1023 hPa
Density Alt459 ft
Elevation541 ft
Report Wrong Elevation
Raw Report
METAR LDDU 240900Z 29004KT 250V350 9999 FEW068 15/06 Q1023 NOSIG=

Extra information for LDDU:More info

Metar Taf Metar & Taf Last 4 Metars F.Rules Stats Wind Profile Meteogram Temp Stats Airport Information Weather charts Add Link Nearby VenuesMetar ALERT Operation Metar Decoded Social comments